sensor_id;sensor_type;location;lat;lon;timestamp;pressure;altitude;pressure_sealevel;temperature;humidity
54122;BME280;40029;58.708;50.190;2024-01-30T00:00:24;99860.63;;;-4.27;84.36
54122;BME280;40029;58.708;50.190;2024-01-30T00:03:13;99854.50;;;-4.32;84.73
54122;BME280;40029;58.708;50.190;2024-01-30T00:05:45;99852.00;;;-4.29;85.21
54122;BME280;40029;58.708;50.190;2024-01-30T00:08:16;99846.91;;;-4.25;84.95
54122;BME280;40029;58.708;50.190;2024-01-30T00:10:47;99845.19;;;-4.25;85.32
54122;BME280;40029;58.708;50.190;2024-01-30T00:13:19;99841.66;;;-4.29;85.44
54122;BME280;40029;58.708;50.190;2024-01-30T00:15:50;99836.44;;;-4.33;85.92
54122;BME280;40029;58.708;50.190;2024-01-30T00:18:22;99826.09;;;-4.32;86.12
54122;BME280;40029;58.708;50.190;2024-01-30T00:20:53;99826.25;;;-4.25;85.99
54122;BME280;40029;58.708;50.190;2024-01-30T00:23:24;99817.47;;;-4.34;86.13
54122;BME280;40029;58.708;50.190;2024-01-30T00:25:56;99808.00;;;-4.35;86.42
54122;BME280;40029;58.708;50.190;2024-01-30T00:28:27;99808.03;;;-4.33;86.59
54122;BME280;40029;58.708;50.190;2024-01-30T00:30:58;99792.63;;;-4.29;86.53
54122;BME280;40029;58.708;50.190;2024-01-30T00:33:30;99792.72;;;-4.22;86.31
54122;BME280;40029;58.708;50.190;2024-01-30T00:36:01;99790.94;;;-4.27;86.41
54122;BME280;40029;58.708;50.190;2024-01-30T00:38:32;99781.47;;;-4.28;86.32
54122;BME280;40029;58.708;50.190;2024-01-30T00:41:04;99784.00;;;-4.29;86.36
54122;BME280;40029;58.708;50.190;2024-01-30T00:43:36;99777.13;;;-4.29;86.44
54122;BME280;40029;58.708;50.190;2024-01-30T00:46:26;99778.06;;;-4.25;86.70
54122;BME280;40029;58.708;50.190;2024-01-30T00:48:57;99770.41;;;-4.20;86.56
54122;BME280;40029;58.708;50.190;2024-01-30T00:51:28;99760.91;;;-4.21;86.87
54122;BME280;40029;58.708;50.190;2024-01-30T00:54:00;99765.34;;;-4.14;86.55
54122;BME280;40029;58.708;50.190;2024-01-30T00:56:32;99762.69;;;-4.17;86.29
54122;BME280;40029;58.708;50.190;2024-01-30T00:59:03;99761.00;;;-4.17;86.76
54122;BME280;40029;58.708;50.190;2024-01-30T01:01:34;99753.97;;;-4.22;87.19
54122;BME280;40029;58.708;50.190;2024-01-30T01:04:05;99749.00;;;-4.12;86.80
54122;BME280;40029;58.708;50.190;2024-01-30T01:06:38;99751.59;;;-4.12;86.59
54122;BME280;40029;58.708;50.190;2024-01-30T01:09:10;99751.66;;;-4.09;86.59
54122;BME280;40029;58.708;50.190;2024-01-30T01:12:01;99737.97;;;-4.03;86.39
54122;BME280;40029;58.708;50.190;2024-01-30T01:14:32;99743.97;;;-4.04;86.34
54122;BME280;40029;58.708;50.190;2024-01-30T01:17:03;99743.03;;;-4.09;86.67
54122;BME280;40029;58.708;50.190;2024-01-30T01:19:36;99749.03;;;-4.10;86.87
54122;BME280;40029;58.708;50.190;2024-01-30T01:22:07;99735.31;;;-4.06;86.56
54122;BME280;40029;58.708;50.190;2024-01-30T01:24:39;99735.31;;;-4.06;86.62
54122;BME280;40029;58.708;50.190;2024-01-30T01:27:10;99734.41;;;-4.11;86.96
54122;BME280;40029;58.708;50.190;2024-01-30T01:30:00;99731.84;;;-4.08;86.70
54122;BME280;40029;58.708;50.190;2024-01-30T01:32:50;99726.81;;;-4.02;86.58
54122;BME280;40029;58.708;50.190;2024-01-30T01:35:26;99722.47;;;-4.03;86.87
54122;BME280;40029;58.708;50.190;2024-01-30T01:37:57;99717.31;;;-4.03;86.75
54122;BME280;40029;58.708;50.190;2024-01-30T01:40:49;99719.88;;;-4.03;86.68
54122;BME280;40029;58.708;50.190;2024-01-30T01:43:39;99707.00;;;-4.01;86.48
54122;BME280;40029;58.708;50.190;2024-01-30T01:46:10;99705.38;;;-3.96;86.29
54122;BME280;40029;58.708;50.190;2024-01-30T01:48:42;99710.59;;;-3.92;86.39
54122;BME280;40029;58.708;50.190;2024-01-30T01:51:14;99707.09;;;-3.95;85.99
54122;BME280;40029;58.708;50.190;2024-01-30T01:53:46;99708.88;;;-3.91;86.03
54122;BME280;40029;58.708;50.190;2024-01-30T01:56:18;99695.06;;;-3.93;85.95
54122;BME280;40029;58.708;50.190;2024-01-30T01:58:49;99707.16;;;-3.92;85.65
54122;BME280;40029;58.708;50.190;2024-01-30T02:01:23;99702.84;;;-3.92;85.73
54122;BME280;40029;58.708;50.190;2024-01-30T02:03:55;99704.59;;;-3.91;85.36
54122;BME280;40029;58.708;50.190;2024-01-30T02:06:27;99696.91;;;-3.86;85.38
54122;BME280;40029;58.708;50.190;2024-01-30T02:09:17;99697.72;;;-3.90;84.96
54122;BME280;40029;58.708;50.190;2024-01-30T02:11:48;99701.25;;;-3.83;85.26
54122;BME280;40029;58.708;50.190;2024-01-30T02:14:20;99700.34;;;-3.85;85.07
54122;BME280;40029;58.708;50.190;2024-01-30T02:16:51;99699.50;;;-3.84;85.06
54122;BME280;40029;58.708;50.190;2024-01-30T02:19:22;99700.44;;;-3.81;84.90
54122;BME280;40029;58.708;50.190;2024-01-30T02:21:53;99701.19;;;-3.86;84.51
54122;BME280;40029;58.708;50.190;2024-01-30T02:24:25;99690.91;;;-3.85;84.79
54122;BME280;40029;58.708;50.190;2024-01-30T02:27:15;99691.00;;;-3.77;84.95
54122;BME280;40029;58.708;50.190;2024-01-30T02:29:46;99689.28;;;-3.77;84.99
54122;BME280;40029;58.708;50.190;2024-01-30T02:32:17;99690.16;;;-3.75;84.79
54122;BME280;40029;58.708;50.190;2024-01-30T02:34:48;99685.81;;;-3.79;84.37
54122;BME280;40029;58.708;50.190;2024-01-30T02:37:19;99682.38;;;-3.76;84.61
54122;BME280;40029;58.708;50.190;2024-01-30T02:39:50;99684.09;;;-3.80;84.66
54122;BME280;40029;58.708;50.190;2024-01-30T02:42:40;99677.16;;;-3.81;84.65
54122;BME280;40029;58.708;50.190;2024-01-30T02:45:30;99684.13;;;-3.77;84.71
54122;BME280;40029;58.708;50.190;2024-01-30T02:48:01;99685.00;;;-3.75;84.94
54122;BME280;40029;58.708;50.190;2024-01-30T02:50:33;99680.66;;;-3.77;84.81
54122;BME280;40029;58.708;50.190;2024-01-30T02:53:04;99683.31;;;-3.73;84.52
54122;BME280;40029;58.708;50.190;2024-01-30T02:55:35;99678.06;;;-3.79;85.00
54122;BME280;40029;58.708;50.190;2024-01-30T02:58:24;99675.56;;;-3.74;85.09
54122;BME280;40029;58.708;50.190;2024-01-30T03:00:56;99668.63;;;-3.75;85.25
54122;BME280;40029;58.708;50.190;2024-01-30T03:03:45;99672.06;;;-3.76;85.58
54122;BME280;40029;58.708;50.190;2024-01-30T03:06:16;99669.44;;;-3.79;85.69
54122;BME280;40029;58.708;50.190;2024-01-30T03:08:48;99668.63;;;-3.75;85.62
54122;BME280;40029;58.708;50.190;2024-01-30T03:11:19;99660.84;;;-3.78;85.66
54122;BME280;40029;58.708;50.190;2024-01-30T03:13:50;99659.16;;;-3.75;85.93
54122;BME280;40029;58.708;50.190;2024-01-30T03:16:22;99665.22;;;-3.74;85.93
54122;BME280;40029;58.708;50.190;2024-01-30T03:18:53;99653.06;;;-3.78;86.34
54122;BME280;40029;58.708;50.190;2024-01-30T03:21:24;99655.72;;;-3.75;86.08
54122;BME280;40029;58.708;50.190;2024-01-30T03:23:55;99655.78;;;-3.72;86.20
54122;BME280;40029;58.708;50.190;2024-01-30T03:26:27;99654.00;;;-3.75;86.15
54122;BME280;40029;58.708;50.190;2024-01-30T03:28:58;99646.22;;;-3.78;86.22
54122;BME280;40029;58.708;50.190;2024-01-30T03:31:29;99654.78;;;-3.80;86.49
54122;BME280;40029;58.708;50.190;2024-01-30T03:34:01;99640.16;;;-3.78;86.39
54122;BME280;40029;58.708;50.190;2024-01-30T03:36:32;99637.59;;;-3.77;86.37
54122;BME280;40029;58.708;50.190;2024-01-30T03:39:05;99635.03;;;-3.75;86.27
54122;BME280;40029;58.708;50.190;2024-01-30T03:41:37;99639.38;;;-3.74;86.37
54122;BME280;40029;58.708;50.190;2024-01-30T03:44:08;99643.72;;;-3.72;86.19
54122;BME280;40029;58.708;50.190;2024-01-30T03:46:39;99637.69;;;-3.72;86.69
54122;BME280;40029;58.708;50.190;2024-01-30T03:49:10;99632.53;;;-3.69;86.40
54122;BME280;40029;58.708;50.190;2024-01-30T03:51:41;99629.03;;;-3.73;86.61
54122;BME280;40029;58.708;50.190;2024-01-30T03:54:12;99623.00;;;-3.73;86.48
54122;BME280;40029;58.708;50.190;2024-01-30T03:56:44;99618.72;;;-3.74;86.79
54122;BME280;40029;58.708;50.190;2024-01-30T03:59:15;99629.94;;;-3.69;86.76
54122;BME280;40029;58.708;50.190;2024-01-30T04:01:47;99625.59;;;-3.73;87.08
54122;BME280;40029;58.708;50.190;2024-01-30T04:04:36;99619.50;;;-3.80;87.15
54122;BME280;40029;58.708;50.190;2024-01-30T04:07:07;99621.34;;;-3.70;86.76
54122;BME280;40029;58.708;50.190;2024-01-30T04:09:39;99614.53;;;-3.64;86.77
54122;BME280;40029;58.708;50.190;2024-01-30T04:12:10;99624.00;;;-3.62;86.38
54122;BME280;40029;58.708;50.190;2024-01-30T04:14:41;99618.84;;;-3.62;86.66
54122;BME280;40029;58.708;50.190;2024-01-30T04:17:31;99618.06;;;-3.56;86.42
54122;BME280;40029;58.708;50.190;2024-01-30T04:20:02;99613.75;;;-3.57;86.72
54122;BME280;40029;58.708;50.190;2024-01-30T04:22:35;99612.09;;;-3.52;86.63
54122;BME280;40029;58.708;50.190;2024-01-30T04:25:06;99604.28;;;-3.55;86.37
54122;BME280;40029;58.708;50.190;2024-01-30T04:27:37;99607.78;;;-3.52;86.30
54122;BME280;40029;58.708;50.190;2024-01-30T04:30:10;99600.94;;;-3.48;86.36
54122;BME280;40029;58.708;50.190;2024-01-30T04:32:42;99599.25;;;-3.46;86.46
54122;BME280;40029;58.708;50.190;2024-01-30T04:35:14;99595.75;;;-3.50;86.41
54122;BME280;40029;58.708;50.190;2024-01-30T04:37:46;99588.03;;;-3.46;86.48
54122;BME280;40029;58.708;50.190;2024-01-30T04:40:17;99599.22;;;-3.47;86.48
54122;BME280;40029;58.708;50.190;2024-01-30T04:42:49;99598.38;;;-3.46;86.70
54122;BME280;40029;58.708;50.190;2024-01-30T04:45:20;99596.63;;;-3.47;86.83
54122;BME280;40029;58.708;50.190;2024-01-30T04:47:52;99598.38;;;-3.43;86.56
54122;BME280;40029;58.708;50.190;2024-01-30T04:50:23;99586.41;;;-3.38;86.40
54122;BME280;40029;58.708;50.190;2024-01-30T04:52:54;99587.25;;;-3.38;86.85
54122;BME280;40029;58.708;50.190;2024-01-30T04:55:25;99587.31;;;-3.33;86.56
54122;BME280;40029;58.708;50.190;2024-01-30T04:57:57;99586.53;;;-3.26;86.23
54122;BME280;40029;58.708;50.190;2024-01-30T05:00:28;99586.47;;;-3.31;86.26
54122;BME280;40029;58.708;50.190;2024-01-30T05:02:59;99584.69;;;-3.36;86.62
54122;BME280;40029;58.708;50.190;2024-01-30T05:05:30;99591.63;;;-3.34;86.39
54122;BME280;40029;58.708;50.190;2024-01-30T05:08:01;99595.09;;;-3.28;86.48
54122;BME280;40029;58.708;50.190;2024-01-30T05:10:32;99591.69;;;-3.27;86.61
54122;BME280;40029;58.708;50.190;2024-01-30T05:13:03;99584.78;;;-3.27;86.45
54122;BME280;40029;58.708;50.190;2024-01-30T05:15:35;99588.16;;;-3.34;86.51
54122;BME280;40029;58.708;50.190;2024-01-30T05:18:06;99591.66;;;-3.29;86.80
54122;BME280;40029;58.708;50.190;2024-01-30T05:20:37;99587.38;;;-3.30;86.64
54122;BME280;40029;58.708;50.190;2024-01-30T05:23:08;99589.94;;;-3.28;86.87
54122;BME280;40029;58.708;50.190;2024-01-30T05:25:39;99587.41;;;-3.24;86.76
54122;BME280;40029;58.708;50.190;2024-01-30T05:28:10;99590.06;;;-3.21;86.60
54122;BME280;40029;58.708;50.190;2024-01-30T05:30:41;99583.19;;;-3.16;87.03
54122;BME280;40029;58.708;50.190;2024-01-30T05:33:13;99573.75;;;-3.11;86.72
54122;BME280;40029;58.708;50.190;2024-01-30T05:35:44;99572.84;;;-3.16;86.67
54122;BME280;40029;58.708;50.190;2024-01-30T05:38:16;99566.88;;;-3.08;86.68
54122;BME280;40029;58.708;50.190;2024-01-30T05:40:47;99572.09;;;-3.04;86.43
54122;BME280;40029;58.708;50.190;2024-01-30T05:43:37;99577.34;;;-2.98;86.37
54122;BME280;40029;58.708;50.190;2024-01-30T05:46:08;99577.34;;;-2.98;86.05
54122;BME280;40029;58.708;50.190;2024-01-30T05:48:58;99576.47;;;-2.98;86.29
54122;BME280;40029;58.708;50.190;2024-01-30T05:51:29;99578.19;;;-3.00;86.48
54122;BME280;40029;58.708;50.190;2024-01-30T05:54:19;99573.91;;;-2.97;86.67
54122;BME280;40029;58.708;50.190;2024-01-30T05:56:50;99579.09;;;-2.94;86.74
54122;BME280;40029;58.708;50.190;2024-01-30T05:59:22;99579.16;;;-2.89;86.37
54122;BME280;40029;58.708;50.190;2024-01-30T06:01:53;99582.63;;;-2.85;86.27
54122;BME280;40029;58.708;50.190;2024-01-30T06:04:43;99581.72;;;-2.91;86.34
54122;BME280;40029;58.708;50.190;2024-01-30T06:07:15;99585.25;;;-2.81;86.28
54122;BME280;40029;58.708;50.190;2024-01-30T06:09:46;99586.13;;;-2.77;85.80
54122;BME280;40029;58.708;50.190;2024-01-30T06:12:17;99599.09;;;-2.76;86.06
54122;BME280;40029;58.708;50.190;2024-01-30T06:15:07;99590.50;;;-2.72;85.96
54122;BME280;40029;58.708;50.190;2024-01-30T06:17:39;99595.69;;;-2.72;86.08
54122;BME280;40029;58.708;50.190;2024-01-30T06:20:10;99600.88;;;-2.70;86.02
54122;BME280;40029;58.708;50.190;2024-01-30T06:22:41;99598.31;;;-2.64;86.03
54122;BME280;40029;58.708;50.190;2024-01-30T06:25:13;99600.84;;;-2.72;86.19
54122;BME280;40029;58.708;50.190;2024-01-30T06:27:44;99595.75;;;-2.62;85.98
54122;BME280;40029;58.708;50.190;2024-01-30T06:30:15;99600.03;;;-2.66;86.14
54122;BME280;40029;58.708;50.190;2024-01-30T06:32:46;99614.75;;;-2.63;86.15
54122;BME280;40029;58.708;50.190;2024-01-30T06:35:17;99610.50;;;-2.58;86.23
54122;BME280;40029;58.708;50.190;2024-01-30T06:37:49;99615.66;;;-2.58;86.05
54122;BME280;40029;58.708;50.190;2024-01-30T06:40:20;99618.25;;;-2.58;86.22
54122;BME280;40029;58.708;50.190;2024-01-30T06:43:10;99619.13;;;-2.55;86.46
54122;BME280;40029;58.708;50.190;2024-01-30T06:45:42;99614.81;;;-2.54;86.31
54122;BME280;40029;58.708;50.190;2024-01-30T06:48:32;99623.38;;;-2.61;86.76
54122;BME280;40029;58.708;50.190;2024-01-30T06:51:03;99624.28;;;-2.58;86.70
54122;BME280;40029;58.708;50.190;2024-01-30T06:53:52;99634.66;;;-2.58;86.67
54122;BME280;40029;58.708;50.190;2024-01-30T06:56:24;99632.88;;;-2.62;86.94
54122;BME280;40029;58.708;50.190;2024-01-30T06:58:56;99638.88;;;-2.66;87.30
54122;BME280;40029;58.708;50.190;2024-01-30T07:01:29;99636.41;;;-2.52;86.66
54122;BME280;40029;58.708;50.190;2024-01-30T07:04:00;99634.75;;;-2.47;86.76
54122;BME280;40029;58.708;50.190;2024-01-30T07:06:32;99635.59;;;-2.46;86.50
54122;BME280;40029;58.708;50.190;2024-01-30T07:09:03;99621.84;;;-2.41;86.94
54122;BME280;40029;58.708;50.190;2024-01-30T07:11:34;99621.88;;;-2.35;86.43
54122;BME280;40029;58.708;50.190;2024-01-30T07:14:05;99616.75;;;-2.25;86.49
54122;BME280;40029;58.708;50.190;2024-01-30T07:16:36;99609.00;;;-2.24;86.46
54122;BME280;40029;58.708;50.190;2024-01-30T07:19:07;99610.81;;;-2.10;86.18
54122;BME280;40029;58.708;50.190;2024-01-30T07:21:58;99610.81;;;-2.15;85.57
54122;BME280;40029;58.708;50.190;2024-01-30T07:24:30;99605.63;;;-2.15;86.46
54122;BME280;40029;58.708;50.190;2024-01-30T07:27:01;99595.34;;;-2.03;85.73
54122;BME280;40029;58.708;50.190;2024-01-30T07:29:32;99587.59;;;-1.92;85.62
54122;BME280;40029;58.708;50.190;2024-01-30T07:32:04;99593.69;;;-1.88;85.55
54122;BME280;40029;58.708;50.190;2024-01-30T07:34:35;99588.53;;;-1.84;85.34
54122;BME280;40029;58.708;50.190;2024-01-30T07:37:07;99592.84;;;-1.81;85.01
54122;BME280;40029;58.708;50.190;2024-01-30T07:39:39;99595.50;;;-1.70;84.94
54122;BME280;40029;58.708;50.190;2024-01-30T07:42:10;99593.75;;;-1.78;84.57
54122;BME280;40029;58.708;50.190;2024-01-30T07:44:41;99593.75;;;-1.76;84.14
54122;BME280;40029;58.708;50.190;2024-01-30T07:47:12;99580.84;;;-1.67;84.76
54122;BME280;40029;58.708;50.190;2024-01-30T07:49:43;99580.88;;;-1.62;84.89
54122;BME280;40029;58.708;50.190;2024-01-30T07:52:14;99596.41;;;-1.61;84.41
54122;BME280;40029;58.708;50.190;2024-01-30T07:54:46;99592.94;;;-1.66;84.53
54122;BME280;40029;58.708;50.190;2024-01-30T07:57:17;99593.81;;;-1.64;84.91
54122;BME280;40029;58.708;50.190;2024-01-30T07:59:48;99586.00;;;-1.73;85.02
54122;BME280;40029;58.708;50.190;2024-01-30T08:02:19;99586.03;;;-1.64;84.76
54122;BME280;40029;58.708;50.190;2024-01-30T08:04:51;99573.09;;;-1.62;85.34
54122;BME280;40029;58.708;50.190;2024-01-30T08:07:42;99569.69;;;-1.49;84.67
54122;BME280;40029;58.708;50.190;2024-01-30T08:10:16;99575.72;;;-1.54;84.42
54122;BME280;40029;58.708;50.190;2024-01-30T08:12:50;99579.16;;;-1.56;84.78
54122;BME280;40029;58.708;50.190;2024-01-30T08:15:21;99574.88;;;-1.47;84.67
54122;BME280;40029;58.708;50.190;2024-01-30T08:17:52;99574.84;;;-1.46;84.47
54122;BME280;40029;58.708;50.190;2024-01-30T08:20:29;99579.19;;;-1.46;84.92
54122;BME280;40029;58.708;50.190;2024-01-30T08:23:00;99593.00;;;-1.57;85.02
54122;BME280;40029;58.708;50.190;2024-01-30T08:25:31;99599.06;;;-1.53;85.12
54122;BME280;40029;58.708;50.190;2024-01-30T08:28:03;99612.84;;;-1.56;85.08
54122;BME280;40029;58.708;50.190;2024-01-30T08:30:34;99608.59;;;-1.47;84.95
54122;BME280;40029;58.708;50.190;2024-01-30T08:33:06;99606.81;;;-1.51;85.27
54122;BME280;40029;58.708;50.190;2024-01-30T08:35:37;99602.53;;;-1.51;85.45
54122;BME280;40029;58.708;50.190;2024-01-30T08:38:27;99604.25;;;-1.42;84.99
54122;BME280;40029;58.708;50.190;2024-01-30T08:40:58;99603.41;;;-1.43;84.80
54122;BME280;40029;58.708;50.190;2024-01-30T08:43:29;99603.41;;;-1.43;85.06
54122;BME280;40029;58.708;50.190;2024-01-30T08:46:00;99609.50;;;-1.31;84.91
54122;BME280;40029;58.708;50.190;2024-01-30T08:48:50;99608.66;;;-1.26;84.58
54122;BME280;40029;58.708;50.190;2024-01-30T08:51:21;99599.13;;;-1.28;84.88
54122;BME280;40029;58.708;50.190;2024-01-30T08:53:52;99598.31;;;-1.13;84.33
54122;BME280;40029;58.708;50.190;2024-01-30T08:56:24;99603.50;;;-1.09;84.23
54122;BME280;40029;58.708;50.190;2024-01-30T08:58:55;99607.84;;;-1.12;84.41
54122;BME280;40029;58.708;50.190;2024-01-30T09:01:26;99610.44;;;-1.06;84.21
54122;BME280;40029;58.708;50.190;2024-01-30T09:04:17;99612.19;;;-0.96;83.55
54122;BME280;40029;58.708;50.190;2024-01-30T09:06:48;99608.75;;;-1.00;84.23
54122;BME280;40029;58.708;50.190;2024-01-30T09:09:20;99621.69;;;-1.12;83.75
54122;BME280;40029;58.708;50.190;2024-01-30T09:11:51;99620.81;;;-1.06;83.92
54122;BME280;40029;58.708;50.190;2024-01-30T09:14:22;99615.69;;;-0.88;83.82
54122;BME280;40029;58.708;50.190;2024-01-30T09:16:53;99617.41;;;-0.78;83.23
54122;BME280;40029;58.708;50.190;2024-01-30T09:19:25;99613.94;;;-0.86;83.65
54122;BME280;40029;58.708;50.190;2024-01-30T09:21:56;99613.06;;;-0.88;84.05
54122;BME280;40029;58.708;50.190;2024-01-30T09:24:27;99619.16;;;-0.75;83.75
54122;BME280;40029;58.708;50.190;2024-01-30T09:26:58;99622.59;;;-0.90;83.36
54122;BME280;40029;58.708;50.190;2024-01-30T09:29:29;99618.28;;;-0.85;83.76
54122;BME280;40029;58.708;50.190;2024-01-30T09:32:00;99601.84;;;-0.68;83.12
54122;BME280;40029;58.708;50.190;2024-01-30T09:34:32;99608.78;;;-0.61;82.77
54122;BME280;40029;58.708;50.190;2024-01-30T09:37:03;99607.91;;;-0.65;83.38
54122;BME280;40029;58.708;50.190;2024-01-30T09:39:53;99596.66;;;-0.59;82.89
54122;BME280;40029;58.708;50.190;2024-01-30T09:45:14;99582.81;;;-0.44;82.43
54122;BME280;40029;58.708;50.190;2024-01-30T09:47:46;99578.50;;;-0.50;82.87
54122;BME280;40029;58.708;50.190;2024-01-30T09:50:18;99578.50;;;-0.31;82.35
54122;BME280;40029;58.708;50.190;2024-01-30T09:52:51;99577.59;;;-0.21;81.88
54122;BME280;40029;58.708;50.190;2024-01-30T09:55:24;99581.94;;;-0.29;82.13
54122;BME280;40029;58.708;50.190;2024-01-30T09:57:55;99576.72;;;-0.11;81.64
54122;BME280;40029;58.708;50.190;2024-01-30T10:00:26;99570.66;;;-0.13;81.70
54122;BME280;40029;58.708;50.190;2024-01-30T10:02:58;99579.31;;;-0.02;81.49
54122;BME280;40029;58.708;50.190;2024-01-30T10:05:31;99568.91;;;-0.02;81.27
54122;BME280;40029;58.708;50.190;2024-01-30T10:08:23;99574.94;;;-0.06;81.31
54122;BME280;40029;58.708;50.190;2024-01-30T10:11:12;99569.75;;;-0.06;81.56
54122;BME280;40029;58.708;50.190;2024-01-30T10:13:43;99574.13;;;-0.14;81.80
54122;BME280;40029;58.708;50.190;2024-01-30T10:16:14;99577.56;;;-0.15;81.73
54122;BME280;40029;58.708;50.190;2024-01-30T10:18:47;99572.38;;;-0.12;81.05
54122;BME280;40029;58.708;50.190;2024-01-30T10:21:18;99580.16;;;-0.15;81.25
54122;BME280;40029;58.708;50.190;2024-01-30T10:23:50;99578.44;;;-0.08;81.66
54122;BME280;40029;58.708;50.190;2024-01-30T10:26:21;99581.03;;;-0.05;81.61
54122;BME280;40029;58.708;50.190;2024-01-30T10:28:52;99592.28;;;-0.05;81.41
54122;BME280;40029;58.708;50.190;2024-01-30T10:31:23;99577.56;;;-0.06;80.83
54122;BME280;40029;58.708;50.190;2024-01-30T10:33:55;99579.31;;;-0.23;81.51
54122;BME280;40029;58.708;50.190;2024-01-30T10:36:28;99583.66;;;-0.13;80.97
54122;BME280;40029;58.708;50.190;2024-01-30T10:39:03;99579.31;;;-0.23;81.36
54122;BME280;40029;58.708;50.190;2024-01-30T10:41:43;99577.59;;;-0.21;80.97
54122;BME280;40029;58.708;50.190;2024-01-30T10:44:18;99572.41;;;-0.27;80.88
54122;BME280;40029;58.708;50.190;2024-01-30T10:46:56;99565.47;;;-0.25;81.53
54122;BME280;40029;58.708;50.190;2024-01-30T10:49:31;99552.47;;;-0.30;81.57
54122;BME280;40029;58.708;50.190;2024-01-30T10:52:04;99549.00;;;-0.16;81.27
54122;BME280;40029;58.708;50.190;2024-01-30T10:54:36;99555.03;;;-0.07;80.87
54122;BME280;40029;58.708;50.190;2024-01-30T10:57:27;99542.06;;;-0.04;80.46
54122;BME280;40029;58.708;50.190;2024-01-30T10:59:59;99541.19;;;-0.09;80.43
54122;BME280;40029;58.708;50.190;2024-01-30T11:02:31;99542.03;;;-0.07;80.42
54122;BME280;40029;58.708;50.190;2024-01-30T11:05:04;99541.16;;;-0.06;80.95
54122;BME280;40029;58.708;50.190;2024-01-30T11:07:36;99545.53;;;-0.18;80.66
54122;BME280;40029;58.708;50.190;2024-01-30T11:10:11;99542.94;;;-0.17;80.41
54122;BME280;40029;58.708;50.190;2024-01-30T11:12:46;99542.97;;;-0.42;81.42
54122;BME280;40029;58.708;50.190;2024-01-30T11:15:19;99542.97;;;-0.40;80.72
54122;BME280;40029;58.708;50.190;2024-01-30T11:18:08;99550.75;;;-0.43;80.33
54122;BME280;40029;58.708;50.190;2024-01-30T11:20:46;99563.75;;;-0.32;80.18
54122;BME280;40029;58.708;50.190;2024-01-30T11:23:18;99555.94;;;-0.34;80.39
54122;BME280;40029;58.708;50.190;2024-01-30T11:25:49;99563.75;;;-0.32;79.88
54122;BME280;40029;58.708;50.190;2024-01-30T11:28:23;99579.34;;;-0.51;79.85
54122;BME280;40029;58.708;50.190;2024-01-30T11:31:03;99571.56;;;-0.40;80.08
54122;BME280;40029;58.708;50.190;2024-01-30T11:33:53;99569.81;;;-0.41;80.42
54122;BME280;40029;58.708;50.190;2024-01-30T11:36:26;99567.22;;;-0.55;80.21
54122;BME280;40029;58.708;50.190;2024-01-30T11:39:00;99555.97;;;-0.74;80.67
54122;BME280;40029;58.708;50.190;2024-01-30T11:41:31;99549.91;;;-0.74;80.92
54122;BME280;40029;58.708;50.190;2024-01-30T11:44:03;99549.91;;;-0.71;80.97
54122;BME280;40029;58.708;50.190;2024-01-30T11:46:34;99562.03;;;-0.64;80.69
54122;BME280;40029;58.708;50.190;2024-01-30T11:49:24;99554.25;;;-0.60;80.06
54122;BME280;40029;58.708;50.190;2024-01-30T11:51:56;99558.56;;;-0.55;80.21
54122;BME280;40029;58.708;50.190;2024-01-30T11:54:45;99549.91;;;-0.57;80.31
54122;BME280;40029;58.708;50.190;2024-01-30T11:57:17;99561.16;;;-0.49;79.79
54122;BME280;40029;58.708;50.190;2024-01-30T11:59:48;99552.50;;;-0.68;79.86
54122;BME280;40029;58.708;50.190;2024-01-30T12:02:19;99553.38;;;-0.59;79.99
54122;BME280;40029;58.708;50.190;2024-01-30T12:04:50;99549.91;;;-0.62;79.54
54122;BME280;40029;58.708;50.190;2024-01-30T12:07:21;99541.25;;;-0.49;79.79
54122;BME280;40029;58.708;50.190;2024-01-30T12:10:11;99558.56;;;-0.54;80.13
54122;BME280;40029;58.708;50.190;2024-01-30T12:12:43;99546.44;;;-0.67;80.02
54122;BME280;40029;58.708;50.190;2024-01-30T12:15:15;99550.78;;;-0.60;79.94
54122;BME280;40029;58.708;50.190;2024-01-30T12:18:06;99554.25;;;-0.55;80.15
54122;BME280;40029;58.708;50.190;2024-01-30T12:20:37;99561.19;;;-0.57;79.48
54122;BME280;40029;58.708;50.190;2024-01-30T12:23:08;99552.50;;;-0.62;79.41
54122;BME280;40029;58.708;50.190;2024-01-30T12:25:40;99553.38;;;-0.66;80.23
54122;BME280;40029;58.708;50.190;2024-01-30T12:28:11;99566.38;;;-0.68;80.48
54122;BME280;40029;58.708;50.190;2024-01-30T12:30:42;99565.50;;;-0.62;79.88
54122;BME280;40029;58.708;50.190;2024-01-30T12:33:17;99582.81;;;-0.55;80.00
54122;BME280;40029;58.708;50.190;2024-01-30T12:35:51;99584.53;;;-0.55;80.27
54122;BME280;40029;58.708;50.190;2024-01-30T12:38:24;99593.19;;;-0.67;79.99
54122;BME280;40029;58.708;50.190;2024-01-30T12:40:55;99596.66;;;-0.65;80.26
54122;BME280;40029;58.708;50.190;2024-01-30T12:43:45;99596.66;;;-0.65;80.17
54122;BME280;40029;58.708;50.190;2024-01-30T12:46:18;99595.78;;;-0.70;80.14
54122;BME280;40029;58.708;50.190;2024-01-30T12:48:49;99596.63;;;-0.68;80.39
54122;BME280;40029;58.708;50.190;2024-01-30T12:51:21;99611.38;;;-0.67;80.24
54122;BME280;40029;58.708;50.190;2024-01-30T12:53:52;99620.00;;;-0.74;80.43
54122;BME280;40029;58.708;50.190;2024-01-30T12:56:23;99620.91;;;-0.75;80.71
54122;BME280;40029;58.708;50.190;2024-01-30T12:58:55;99634.72;;;-0.76;81.04
54122;BME280;40029;58.708;50.190;2024-01-30T13:01:26;99630.41;;;-0.79;80.95
54122;BME280;40029;58.708;50.190;2024-01-30T13:03:57;99614.81;;;-0.73;80.87
54122;BME280;40029;58.708;50.190;2024-01-30T13:06:29;99608.78;;;-0.67;80.64
54122;BME280;40029;58.708;50.190;2024-01-30T13:09:00;99620.00;;;-0.68;81.04
54122;BME280;40029;58.708;50.190;2024-01-30T13:11:32;99611.38;;;-0.67;80.82
54122;BME280;40029;58.708;50.190;2024-01-30T13:14:03;99600.09;;;-0.72;80.64
54122;BME280;40029;58.708;50.190;2024-01-30T13:16:53;99594.94;;;-0.75;81.21
54122;BME280;40029;58.708;50.190;2024-01-30T13:19:24;99600.97;;;-0.80;81.14
54122;BME280;40029;58.708;50.190;2024-01-30T13:21:55;99620.00;;;-0.85;81.05
54122;BME280;40029;58.708;50.190;2024-01-30T13:24:45;99628.66;;;-0.83;81.27
54122;BME280;40029;58.708;50.190;2024-01-30T13:27:16;99639.03;;;-0.94;81.38